Time;durP1;ratioP1;P1;durP2;ratioP2;P2;SDS_P1;SDS_P2;PMS_P1;PMS_P2;Temp;Humidity;BMP_temperature;BMP_pressure;BME280_temperature;BME280_humidity;BME280_pressure;Samples;Min_cycle;Max_cycle;Signal;HPM_P1;HPM_P2
2023/09/06 00:01:24;;;;;;;81.97;44.40;;;19.80;72.40;;;;;;5018361;28;20179;-81
2023/09/06 00:03:49;;;;;;;81.93;42.37;;;19.60;79.60;;;;;;5000189;28;20204;-81
2023/09/06 00:06:16;;;;;;;84.50;48.80;;;19.70;77.60;;;;;;5017721;28;20794;-81
2023/09/06 00:08:42;;;;;;;82.60;46.07;;;19.60;78.40;;;;;;5018464;28;20182;-81
2023/09/06 00:11:07;;;;;;;82.90;43.77;;;19.50;78.60;;;;;;5018378;28;20421;-81
2023/09/06 00:13:35;;;;;;;81.10;41.77;;;19.50;81.60;;;;;;5018039;28;20410;-81
2023/09/06 00:16:04;;;;;;;81.57;43.77;;;19.50;78.90;;;;;;5017775;28;20693;-81
2023/09/06 00:18:30;;;;;;;82.47;47.60;;;19.40;87.30;;;;;;5018382;28;20402;-81
2023/09/06 00:20:57;;;;;;;83.47;48.77;;;19.30;88.90;;;;;;5017121;28;20468;-81
2023/09/06 00:23:27;;;;;;;83.43;46.47;;;19.20;92.20;;;;;;5018509;28;20393;-81
2023/09/06 00:25:56;;;;;;;83.83;45.33;;;19.10;96.80;;;;;;5019496;28;20402;-81
2023/09/06 00:28:25;;;;;;;81.30;41.17;;;19.10;99.70;;;;;;5019858;28;20413;-81
2023/09/06 00:30:52;;;;;;;81.47;41.43;;;19.10;99.50;;;;;;5020094;28;20921;-81
2023/09/06 00:33:18;;;;;;;83.10;39.27;;;19.10;96.70;;;;;;5019562;28;20416;-81
2023/09/06 00:35:43;;;;;;;84.90;49.73;;;19.00;97.90;;;;;;5019743;28;20465;-81
2023/09/06 00:38:10;;;;;;;83.93;48.40;;;18.90;99.20;;;;;;5019307;28;20163;-81
2023/09/06 00:40:37;;;;;;;81.73;42.67;;;18.90;99.90;;;;;;5019494;28;20202;-81
2023/09/06 00:43:07;;;;;;;82.03;45.53;;;18.90;99.90;;;;;;5018717;28;20397;-81
2023/09/06 00:45:39;;;;;;;81.50;45.27;;;18.90;98.20;;;;;;5018512;28;20842;-81
2023/09/06 00:48:07;;;;;;;87.83;50.60;;;18.80;99.40;;;;;;5018265;28;20402;-81
2023/09/06 00:50:37;;;;;;;84.37;53.10;;;18.70;99.90;;;;;;5017717;28;20437;-81
2023/09/06 00:53:07;;;;;;;83.27;49.87;;;18.70;99.90;;;;;;5018127;28;20401;-81
2023/09/06 00:55:41;;;;;;;85.77;56.40;;;18.60;99.90;;;;;;5000401;28;20412;-81
2023/09/06 00:58:08;;;;;;;85.17;50.33;;;18.60;99.90;;;;;;5001122;28;20409;-80
2023/09/06 01:03:04;;;;;;;82.43;44.83;;;18.50;99.90;;;;;;5431761;23;20573;-83
2023/09/06 01:08:01;;;;;;;83.67;49.80;;;18.50;99.90;;;;;;5015301;28;20457;-82
2023/09/06 01:10:26;;;;;;;82.53;41.67;;;18.50;99.90;;;;;;5007420;28;20414;-82
2023/09/06 01:12:55;;;;;;;82.10;44.23;;;18.40;99.90;;;;;;4997136;28;20397;-83
2023/09/06 01:15:22;;;;;;;85.73;44.47;;;18.40;99.90;;;;;;4997325;28;20710;-82
2023/09/06 01:17:50;;;;;;;81.90;41.90;;;18.40;99.90;;;;;;4997580;28;20446;-82
2023/09/06 01:20:29;;;;;;;83.33;37.23;;;18.30;99.90;;;;;;4997307;28;20922;-83
2023/09/06 01:23:02;;;;;;;85.17;38.37;;;18.20;99.90;;;;;;4979374;28;20502;-82
2023/09/06 01:25:28;;;;;;;79.43;35.47;;;18.30;99.90;;;;;;4979651;28;20438;-82
2023/09/06 01:27:54;;;;;;;78.37;34.30;;;18.20;99.90;;;;;;4996822;28;20822;-82
2023/09/06 01:30:20;;;;;;;80.03;34.83;;;18.20;99.90;;;;;;4996763;28;20430;-83
2023/09/06 01:32:45;;;;;;;82.80;32.33;;;18.10;99.90;;;;;;4981721;28;20410;-82
2023/09/06 01:35:11;;;;;;;83.40;30.10;;;18.10;99.90;;;;;;5001075;28;20666;-83
2023/09/06 01:37:37;;;;;;;80.03;36.03;;;18.10;99.90;;;;;;5001260;28;20290;-83
2023/09/06 01:40:20;;;;;;;87.00;36.50;;;18.10;99.90;;;;;;5001209;28;20183;-82
2023/09/06 01:42:46;;;;;;;79.73;33.40;;;18.00;99.90;;;;;;5001264;28;20162;-82
2023/09/06 01:45:17;;;;;;;82.03;32.70;;;18.00;99.90;;;;;;5001372;28;20789;-82
2023/09/06 01:47:44;;;;;;;78.03;28.07;;;17.90;99.90;;;;;;5001173;28;20417;-82
2023/09/06 01:50:09;;;;;;;76.43;24.73;;;18.00;99.90;;;;;;5000723;28;20797;-82
2023/09/06 01:52:36;;;;;;;74.23;21.33;;;18.00;99.90;;;;;;5001127;28;20473;-82
2023/09/06 01:55:04;;;;;;;75.33;24.53;;;18.10;99.90;;;;;;5000572;28;20175;-82
2023/09/06 01:57:30;;;;;;;75.00;21.60;;;18.00;99.90;;;;;;4983462;28;20457;-82
2023/09/06 01:59:56;;;;;;;74.70;21.80;;;18.00;99.90;;;;;;5000920;28;20997;-82
2023/09/06 02:02:22;;;;;;;74.07;19.33;;;18.00;99.90;;;;;;4982979;28;20763;-82
2023/09/06 02:07:15;;;;;;;72.80;17.10;;;17.90;99.90;;;;;;5200924;23;20231;-82
2023/09/06 02:09:41;;;;;;;73.63;17.37;;;17.90;99.90;;;;;;4999533;28;20415;-82
2023/09/06 02:12:07;;;;;;;72.37;16.60;;;17.90;99.90;;;;;;4983034;28;20172;-82
2023/09/06 02:14:34;;;;;;;71.97;15.10;;;18.00;99.90;;;;;;4983459;28;20536;-82
2023/09/06 02:17:00;;;;;;;74.40;17.53;;;18.00;99.90;;;;;;4966204;28;20478;-82
2023/09/06 02:19:26;;;;;;;73.10;15.80;;;17.90;99.90;;;;;;4982946;28;20406;-82
2023/09/06 02:21:52;;;;;;;71.60;14.13;;;18.00;99.90;;;;;;4982682;28;20894;-82
2023/09/06 02:24:18;;;;;;;73.57;15.23;;;18.00;99.90;;;;;;4982452;28;20575;-82
2023/09/06 02:26:43;;;;;;;71.87;16.43;;;18.00;99.90;;;;;;4982920;28;20403;-82
2023/09/06 02:29:11;;;;;;;74.43;15.23;;;18.10;99.90;;;;;;4983085;28;20403;-82
2023/09/06 02:31:38;;;;;;;73.30;17.43;;;18.10;99.90;;;;;;4983090;28;20603;-82
2023/09/06 02:34:04;;;;;;;73.93;18.70;;;18.10;99.90;;;;;;4965157;28;20506;-82
2023/09/06 02:36:30;;;;;;;73.90;17.73;;;18.10;99.90;;;;;;4981635;28;20438;-82
2023/09/06 02:38:57;;;;;;;72.70;16.60;;;18.00;99.90;;;;;;4981969;28;20404;-82
2023/09/06 02:41:23;;;;;;;73.80;13.80;;;18.00;99.90;;;;;;4982660;28;20932;-82
2023/09/06 02:43:49;;;;;;;74.17;16.00;;;18.00;99.90;;;;;;4981880;28;20414;-82
2023/09/06 02:46:15;;;;;;;73.10;17.73;;;18.10;99.90;;;;;;4965460;28;20502;-82
2023/09/06 02:48:46;;;;;;;78.10;19.10;;;18.10;99.90;;;;;;4965791;28;20168;-82
2023/09/06 02:51:16;;;;;;;75.10;21.73;;;18.10;99.90;;;;;;4982850;28;20423;-82
2023/09/06 02:53:45;;;;;;;73.90;15.33;;;18.10;99.90;;;;;;4964740;28;20419;-82
2023/09/06 02:56:14;;;;;;;77.03;18.43;;;18.10;99.90;;;;;;4964828;28;20454;-82
2023/09/06 02:58:42;;;;;;;73.13;16.57;;;18.10;99.90;;;;;;4983081;28;20451;-82
2023/09/06 03:01:19;;;;;;;73.77;17.60;;;18.10;99.90;;;;;;4982420;28;20996;-82
2023/09/06 03:03:48;;;;;;;75.17;16.70;;;18.10;99.90;;;;;;4982278;28;20721;-82
2023/09/06 03:06:18;;;;;;;76.20;17.60;;;18.00;99.90;;;;;;4982206;28;20494;-82
2023/09/06 03:08:47;;;;;;;74.63;18.13;;;18.10;99.90;;;;;;4964739;28;20890;-82
2023/09/06 03:11:16;;;;;;;76.10;22.07;;;18.10;99.90;;;;;;4981999;28;20426;-82
2023/09/06 03:13:43;;;;;;;74.00;19.10;;;18.10;99.90;;;;;;4981467;28;20502;-82
2023/09/06 03:16:13;;;;;;;74.47;20.37;;;18.10;99.90;;;;;;4981017;28;20543;-82
2023/09/06 03:18:40;;;;;;;77.13;22.53;;;18.00;99.90;;;;;;4981743;28;20396;-82
2023/09/06 03:21:09;;;;;;;74.87;20.07;;;18.10;99.90;;;;;;4981481;28;20416;-82
2023/09/06 03:23:35;;;;;;;73.47;19.23;;;18.00;99.90;;;;;;4981701;28;20446;-82
2023/09/06 03:26:02;;;;;;;72.80;15.50;;;17.90;99.90;;;;;;4964633;28;20419;-82
2023/09/06 03:28:28;;;;;;;70.97;12.50;;;17.80;99.90;;;;;;4964187;28;20412;-82
2023/09/06 03:30:58;;;;;;;71.73;12.37;;;17.70;99.90;;;;;;4982101;28;20490;-82
2023/09/06 03:33:25;;;;;;;73.30;16.10;;;17.70;99.90;;;;;;4982134;28;20404;-82
2023/09/06 03:35:51;;;;;;;71.13;13.00;;;17.70;99.90;;;;;;4981438;28;20409;-82
2023/09/06 03:38:17;;;;;;;76.20;18.43;;;17.70;99.90;;;;;;4981543;28;20458;-82
2023/09/06 03:40:49;;;;;;;75.40;20.50;;;17.70;99.90;;;;;;4964051;28;20439;-82
2023/09/06 03:43:15;;;;;;;77.00;20.43;;;17.80;99.90;;;;;;4981823;28;20380;-82
2023/09/06 03:45:50;;;;;;;75.83;22.37;;;17.80;99.90;;;;;;4965623;28;20474;-82
2023/09/06 03:48:17;;;;;;;80.40;22.53;;;17.70;99.90;;;;;;4964353;28;20435;-82
2023/09/06 03:50:43;;;;;;;75.80;18.80;;;17.60;99.90;;;;;;4982362;28;20419;-82
2023/09/06 03:53:09;;;;;;;71.97;15.20;;;17.60;99.90;;;;;;4982379;28;20434;-82
2023/09/06 03:55:37;;;;;;;75.90;16.30;;;17.50;99.90;;;;;;4963014;28;20479;-82
2023/09/06 03:58:07;;;;;;;73.23;17.37;;;17.40;99.90;;;;;;4964275;28;20246;-82
2023/09/06 04:00:33;;;;;;;74.97;20.90;;;17.50;99.90;;;;;;4964211;28;20784;-82
2023/09/06 04:02:59;;;;;;;75.33;22.37;;;17.60;99.90;;;;;;4963846;28;20407;-82
2023/09/06 04:05:26;;;;;;;74.60;21.60;;;17.70;99.90;;;;;;4981649;28;20415;-82
2023/09/06 04:07:56;;;;;;;78.37;26.10;;;17.70;99.90;;;;;;4980983;28;20182;-82
2023/09/06 04:15:21;;;;;;;76.20;20.93;;;17.50;99.90;;;;;;5016629;28;20464;-83
2023/09/06 04:17:51;;;;;;;75.40;18.67;;;17.50;99.90;;;;;;5000702;28;20453;-83
2023/09/06 04:20:19;;;;;;;75.40;18.97;;;17.40;99.90;;;;;;5010184;28;20481;-83
2023/09/06 04:22:48;;;;;;;77.10;19.10;;;17.40;99.90;;;;;;4998483;28;20399;-83
2023/09/06 04:25:19;;;;;;;73.80;16.87;;;17.40;99.90;;;;;;4998790;28;20406;-82
2023/09/06 04:27:45;;;;;;;74.30;17.33;;;17.30;99.90;;;;;;4998940;28;20879;-83
2023/09/06 04:30:12;;;;;;;79.03;17.10;;;17.30;99.90;;;;;;4998971;28;20839;-83
2023/09/06 04:32:38;;;;;;;73.67;16.73;;;17.30;99.90;;;;;;4980912;28;20410;-83
2023/09/06 04:35:06;;;;;;;73.10;16.37;;;17.30;99.90;;;;;;4998789;28;20468;-83
2023/09/06 04:37:32;;;;;;;75.07;17.03;;;17.30;99.90;;;;;;4998672;28;20468;-83
2023/09/06 04:40:00;;;;;;;75.77;18.03;;;17.30;99.90;;;;;;4998304;28;20422;-83
2023/09/06 04:42:32;;;;;;;75.17;18.60;;;17.30;99.90;;;;;;4998699;28;20167;-83
2023/09/06 04:44:58;;;;;;;75.97;17.90;;;17.20;99.90;;;;;;4980428;28;20410;-82
2023/09/06 04:47:23;;;;;;;74.73;17.33;;;17.20;99.90;;;;;;4997428;28;20871;-82
2023/09/06 04:49:49;;;;;;;73.87;13.90;;;17.20;99.90;;;;;;5064495;23;20253;-82
2023/09/06 04:52:15;;;;;;;76.97;16.60;;;17.30;99.90;;;;;;5004965;28;20169;-82
2023/09/06 04:54:43;;;;;;;74.27;15.90;;;17.30;99.90;;;;;;5004789;28;20191;-82
2023/09/06 04:57:08;;;;;;;77.23;17.13;;;17.30;99.90;;;;;;5004077;28;20183;-82
2023/09/06 04:59:36;;;;;;;74.20;14.50;;;17.30;99.90;;;;;;5003994;28;20417;-83
2023/09/06 05:02:03;;;;;;;74.53;16.20;;;17.30;99.90;;;;;;5005761;28;20638;-83
2023/09/06 05:04:30;;;;;;;77.10;16.27;;;17.30;99.90;;;;;;5005710;28;20411;-83
2023/09/06 05:06:56;;;;;;;72.17;13.30;;;17.30;99.90;;;;;;5004771;28;20407;-82
2023/09/06 05:09:22;;;;;;;75.10;16.80;;;17.40;99.90;;;;;;5005005;28;20460;-82
2023/09/06 05:11:48;;;;;;;75.00;14.90;;;17.40;99.90;;;;;;4971087;28;20631;-83
2023/09/06 05:14:16;;;;;;;74.20;16.73;;;17.40;99.90;;;;;;4987978;28;20414;-82
2023/09/06 05:16:42;;;;;;;73.40;13.67;;;17.40;99.90;;;;;;4986655;28;20198;-83
2023/09/06 05:19:08;;;;;;;74.60;14.90;;;17.40;99.90;;;;;;4987464;28;20493;-83
2023/09/06 05:21:35;;;;;;;79.73;18.13;;;17.40;99.90;;;;;;5004289;28;20190;-82
2023/09/06 05:24:00;;;;;;;74.40;16.20;;;17.40;99.90;;;;;;4986812;28;20171;-84
2023/09/06 05:26:30;;;;;;;71.47;13.07;;;17.40;99.90;;;;;;5000821;28;20418;-84
2023/09/06 05:28:56;;;;;;;76.90;17.60;;;17.40;99.90;;;;;;5000779;28;20177;-85
2023/09/06 05:31:22;;;;;;;76.23;16.00;;;17.40;99.90;;;;;;4982230;28;20528;-83
2023/09/06 05:33:47;;;;;;;75.37;16.30;;;17.40;99.90;;;;;;4982125;28;20591;-83
2023/09/06 05:36:13;;;;;;;75.47;18.63;;;17.40;99.90;;;;;;4998600;28;20199;-83
2023/09/06 05:38:39;;;;;;;73.30;18.80;;;17.40;99.90;;;;;;4999473;28;20241;-83
2023/09/06 05:41:05;;;;;;;73.40;15.93;;;17.40;99.90;;;;;;4998887;28;20183;-83
2023/09/06 05:43:30;;;;;;;76.73;16.17;;;17.40;99.90;;;;;;4998876;28;20182;-83
2023/09/06 05:45:56;;;;;;;74.70;14.40;;;17.50;99.90;;;;;;4999120;28;20438;-83
2023/09/06 05:48:22;;;;;;;74.43;12.93;;;17.50;99.90;;;;;;4982385;28;20174;-83
2023/09/06 05:50:47;;;;;;;72.37;12.50;;;17.60;99.90;;;;;;4999174;28;20207;-84
2023/09/06 05:53:13;;;;;;;77.73;14.60;;;17.60;99.90;;;;;;4999404;28;20171;-82
2023/09/06 05:55:41;;;;;;;75.57;13.60;;;17.60;99.90;;;;;;4981901;28;20167;-83
2023/09/06 05:58:07;;;;;;;74.27;12.27;;;17.70;99.90;;;;;;4999472;28;20174;-83
2023/09/06 06:00:34;;;;;;;74.37;13.80;;;17.70;99.90;;;;;;4998710;28;20509;-83
2023/09/06 06:03:01;;;;;;;79.67;13.87;;;17.70;99.90;;;;;;4981611;28;20167;-83
2023/09/06 06:05:28;;;;;;;74.47;15.33;;;17.80;99.90;;;;;;4999856;28;20912;-83
2023/09/06 06:07:57;;;;;;;75.70;14.33;;;17.80;99.90;;;;;;4981696;28;20414;-83
2023/09/06 06:10:23;;;;;;;72.07;12.47;;;17.90;99.90;;;;;;4998708;28;20434;-84
2023/09/06 06:12:49;;;;;;;71.90;14.70;;;17.90;99.90;;;;;;4999865;28;20409;-84
2023/09/06 06:15:15;;;;;;;74.53;13.40;;;18.00;99.90;;;;;;4998264;28;20167;-83
2023/09/06 06:17:41;;;;;;;72.80;14.17;;;18.00;99.90;;;;;;4998582;28;20202;-83
2023/09/06 06:20:09;;;;;;;73.63;14.10;;;18.00;99.90;;;;;;5001118;28;20422;-83
2023/09/06 06:22:37;;;;;;;77.97;14.10;;;18.00;99.90;;;;;;5002210;28;20402;-83
2023/09/06 06:25:05;;;;;;;71.77;13.53;;;18.10;99.90;;;;;;4985147;28;20469;-83
2023/09/06 06:27:34;;;;;;;72.60;14.20;;;18.20;99.90;;;;;;5002750;28;20418;-83
2023/09/06 06:29:59;;;;;;;73.30;15.50;;;18.20;99.90;;;;;;5002162;28;20871;-83
2023/09/06 06:32:25;;;;;;;76.23;14.33;;;18.20;99.90;;;;;;5001844;28;20494;-83
2023/09/06 06:34:54;;;;;;;72.40;13.90;;;18.40;99.90;;;;;;4984540;28;20179;-83
2023/09/06 06:37:21;;;;;;;73.30;14.90;;;18.30;99.90;;;;;;5002625;28;20250;-84
2023/09/06 06:39:46;;;;;;;74.00;14.83;;;18.40;99.90;;;;;;5001428;28;20479;-83
2023/09/06 06:42:12;;;;;;;73.87;14.07;;;18.50;99.90;;;;;;5002394;28;20418;-82
2023/09/06 06:44:38;;;;;;;73.17;13.77;;;18.50;99.90;;;;;;5001658;28;20163;-82
2023/09/06 06:47:04;;;;;;;73.30;14.40;;;18.60;99.90;;;;;;4984523;28;20179;-82
2023/09/06 06:49:30;;;;;;;72.73;14.40;;;18.60;99.90;;;;;;5002110;28;20206;-83
2023/09/06 06:51:56;;;;;;;73.80;13.40;;;18.60;99.90;;;;;;5002139;28;20406;-83
2023/09/06 06:54:22;;;;;;;71.00;12.10;;;18.70;99.90;;;;;;4984605;28;20717;-82
2023/09/06 06:56:47;;;;;;;73.10;13.60;;;18.80;99.90;;;;;;5002427;28;20258;-83
2023/09/06 06:59:13;;;;;;;75.17;14.90;;;18.80;99.90;;;;;;5001968;28;20430;-83
2023/09/06 07:01:39;;;;;;;76.23;13.90;;;18.90;99.90;;;;;;5004402;28;20183;-82
2023/09/06 07:04:05;;;;;;;73.93;13.50;;;19.00;99.90;;;;;;4988788;28;20643;-83
2023/09/06 07:06:31;;;;;;;73.37;14.60;;;19.00;99.90;;;;;;5004491;28;20418;-83
2023/09/06 07:08:58;;;;;;;72.30;15.53;;;19.10;99.90;;;;;;5004772;28;20501;-82
2023/09/06 07:11:24;;;;;;;72.00;15.00;;;19.10;98.60;;;;;;4986285;28;20431;-82
2023/09/06 07:13:51;;;;;;;75.47;14.60;;;19.20;99.20;;;;;;5004366;28;20461;-82
2023/09/06 07:16:18;;;;;;;73.27;17.13;;;19.30;96.30;;;;;;5007593;28;20450;-82
2023/09/06 07:18:45;;;;;;;78.27;23.07;;;19.30;95.90;;;;;;4987149;28;20414;-82
2023/09/06 07:21:11;;;;;;;73.23;16.90;;;19.40;94.40;;;;;;4985287;28;20431;-82
2023/09/06 07:23:37;;;;;;;74.73;19.60;;;19.50;89.20;;;;;;5006673;28;20770;-82
2023/09/06 07:26:04;;;;;;;81.57;35.67;;;19.50;92.70;;;;;;5003378;28;20402;-82
2023/09/06 07:28:43;;;;;;;79.23;30.27;;;19.60;85.00;;;;;;5005737;28;20171;-82
2023/09/06 07:31:10;;;;;;;82.03;31.00;;;19.60;84.20;;;;;;4987799;28;20942;-83
2023/09/06 07:33:38;;;;;;;99.45;73.05;;;19.70;82.00;;;;;;5003474;28;20439;-82
2023/09/06 07:36:04;;;;;;;74.03;17.40;;;19.80;82.80;;;;;;4984751;28;20227;-83
2023/09/06 07:38:33;;;;;;;80.17;34.10;;;20.00;61.70;;;;;;5002785;28;20406;-84
2023/09/06 07:41:07;;;;;;;86.30;53.83;;;20.00;59.80;;;;;;4985931;28;20427;-84
2023/09/06 07:43:35;;;;;;;96.10;61.33;;;20.10;65.70;;;;;;4984100;28;20415;-83
2023/09/06 07:46:02;;;;;;;93.63;67.97;;;20.10;56.00;;;;;;5002011;28;20414;-82
2023/09/06 07:48:29;;;;;;;84.45;35.25;;;20.20;57.70;;;;;;4985422;28;20413;-82
2023/09/06 07:50:59;;;;;;;88.33;56.50;;;20.30;47.50;;;;;;5002766;28;20623;-82
2023/09/06 07:53:25;;;;;;;89.77;64.90;;;20.30;39.20;;;;;;4986199;28;20410;-81
2023/09/06 07:55:53;;;;;;;87.37;60.77;;;20.40;42.70;;;;;;4983718;28;20406;-82
2023/09/06 07:58:19;;;;;;;85.73;49.80;;;20.50;39.50;;;;;;5002728;28;20485;-84
2023/09/06 08:00:46;;;;;;;82.57;47.53;;;20.60;34.00;;;;;;5001918;28;20419;-85
2023/09/06 08:03:11;;;;;;;84.60;51.67;;;20.60;29.50;;;;;;5001815;28;20502;-85
2023/09/06 08:05:37;;;;;;;84.23;47.70;;;20.70;26.90;;;;;;5001798;28;20434;-84
2023/09/06 08:08:05;;;;;;;88.00;46.33;;;20.80;14.90;;;;;;4985413;28;20181;-82
2023/09/06 08:10:31;;;;;;;83.50;42.67;;;20.80;13.90;;;;;;4984380;28;20434;-82
2023/09/06 08:12:57;;;;;;;83.70;48.13;;;20.90;13.30;;;;;;4984756;28;20414;-82
2023/09/06 08:15:23;;;;;;;84.43;45.17;;;21.00;9.70;;;;;;4986153;28;20199;-82
2023/09/06 08:17:49;;;;;;;81.77;39.07;;;21.00;12.60;;;;;;5002102;28;20814;-82
2023/09/06 08:20:16;;;;;;;89.20;39.77;;;21.10;10.40;;;;;;4985475;28;20198;-82
2023/09/06 08:22:42;;;;;;;80.63;36.57;;;21.20;3.20;;;;;;5003310;28;20435;-84
2023/09/06 08:25:08;;;;;;;82.60;45.07;;;21.30;1.00;;;;;;5001139;28;20403;-84
2023/09/06 08:27:34;;;;;;;80.47;35.37;;;21.30;4.00;;;;;;4984090;28;20423;-84
2023/09/06 08:30:00;;;;;;;76.80;29.20;;;21.40;1.00;;;;;;4983985;28;20457;-84
2023/09/06 08:32:25;;;;;;;74.70;20.23;;;21.50;1.00;;;;;;4983229;28;20178;-84
2023/09/06 08:34:51;;;;;;;83.10;23.63;;;21.50;1.00;;;;;;4983505;28;20179;-84
2023/09/06 08:37:17;;;;;;;76.77;29.07;;;21.60;1.00;;;;;;5000664;28;20194;-85
2023/09/06 08:39:43;;;;;;;73.70;18.47;;;21.70;1.00;;;;;;4983792;28;20198;-84
2023/09/06 08:42:09;;;;;;;73.47;14.70;;;21.80;1.00;;;;;;4982843;28;20635;-84
2023/09/06 08:44:37;;;;;;;73.17;15.10;;;21.80;1.00;;;;;;5001103;28;20410;-84
2023/09/06 08:47:07;;;;;;;74.63;18.70;;;22.00;1.00;;;;;;5001160;28;20185;-84
2023/09/06 08:49:34;;;;;;;70.80;11.33;;;22.00;1.00;;;;;;5000793;28;20505;-84
2023/09/06 08:52:03;;;;;;;72.70;10.57;;;22.10;1.00;;;;;;4983391;28;20859;-84
2023/09/06 08:54:30;;;;;;;73.50;12.10;;;22.20;1.00;;;;;;4982721;28;20414;-83
2023/09/06 08:56:57;;;;;;;69.87;7.10;;;22.20;1.00;;;;;;4985176;28;20538;-82
2023/09/06 08:59:24;;;;;;;73.37;7.00;;;22.30;1.00;;;;;;4983846;28;20503;-82
2023/09/06 09:01:50;;;;;;;72.87;7.13;;;22.40;1.00;;;;;;5001474;28;20972;-83
2023/09/06 09:04:15;;;;;;;69.77;7.40;;;22.50;1.00;;;;;;4985219;28;20415;-82
2023/09/06 09:06:43;;;;;;;71.53;7.57;;;22.60;1.00;;;;;;5002291;28;20170;-82
2023/09/06 09:09:16;;;;;;;69.77;7.70;;;22.70;1.00;;;;;;5002107;28;20167;-82
2023/09/06 09:11:49;;;;;;;70.60;7.80;;;22.70;1.00;;;;;;4983954;28;20489;-83
2023/09/06 09:14:22;;;;;;;73.97;7.47;;;22.80;1.00;;;;;;4984396;28;20414;-82
2023/09/06 09:16:55;;;;;;;70.77;8.50;;;23.00;1.00;;;;;;4983851;28;20454;-82
2023/09/06 09:19:22;;;;;;;70.60;8.90;;;23.10;1.00;;;;;;4984750;28;20412;-83
2023/09/06 09:21:52;;;;;;;70.80;8.23;;;23.20;1.00;;;;;;5002709;28;20405;-83
2023/09/06 09:24:29;;;;;;;73.80;9.97;;;23.20;1.00;;;;;;5001628;28;20441;-83
2023/09/06 09:26:58;;;;;;;72.37;8.63;;;23.40;1.00;;;;;;4983608;28;20432;-83
2023/09/06 09:29:25;;;;;;;71.60;8.80;;;23.50;1.00;;;;;;5001659;28;20465;-83
2023/09/06 09:31:50;;;;;;;71.67;7.97;;;23.60;1.00;;;;;;4984273;28;20835;-83
2023/09/06 09:34:17;;;;;;;71.30;7.60;;;23.60;1.00;;;;;;4983666;28;20462;-83
2023/09/06 09:36:50;;;;;;;71.97;7.50;;;23.70;1.00;;;;;;4983632;28;20222;-83
2023/09/06 09:39:18;;;;;;;71.77;8.23;;;23.80;1.00;;;;;;5000842;28;20494;-82
2023/09/06 09:41:44;;;;;;;71.77;8.70;;;23.90;1.00;;;;;;4982162;28;20414;-82
2023/09/06 09:44:19;;;;;;;72.70;13.47;;;24.00;1.00;;;;;;5000839;28;20406;-83
2023/09/06 09:46:45;;;;;;;72.87;12.60;;;24.00;1.00;;;;;;4999371;28;20437;-82
2023/09/06 09:49:13;;;;;;;72.90;12.93;;;24.20;1.00;;;;;;4999719;28;20407;-82
2023/09/06 09:51:40;;;;;;;73.47;12.27;;;24.30;1.00;;;;;;5000728;28;20427;-82
2023/09/06 09:54:11;;;;;;;72.70;14.00;;;24.40;1.00;;;;;;4985952;28;20421;-83
2023/09/06 09:56:41;;;;;;;72.53;12.77;;;24.50;1.00;;;;;;4987183;28;20450;-83
2023/09/06 09:59:10;;;;;;;74.30;8.00;;;24.60;1.00;;;;;;5003584;28;20495;-83
2023/09/06 10:01:38;;;;;;;74.27;5.70;;;24.80;1.00;;;;;;4986073;28;20434;-84
2023/09/06 10:04:07;;;;;;;73.20;5.53;;;24.90;1.00;;;;;;5001505;28;20414;-82
2023/09/06 10:06:33;;;;;;;70.90;5.80;;;25.00;1.00;;;;;;5003067;28;20501;-83
2023/09/06 10:09:01;;;;;;;72.07;7.17;;;25.00;1.00;;;;;;5003796;28;20442;-83
2023/09/06 10:11:29;;;;;;;72.07;8.00;;;25.10;1.00;;;;;;5003546;28;20442;-82
2023/09/06 10:13:55;;;;;;;69.87;6.50;;;25.30;1.00;;;;;;4986016;28;20764;-83
2023/09/06 10:16:22;;;;;;;70.97;6.60;;;25.40;1.00;;;;;;5003759;28;20457;-83
2023/09/06 10:18:48;;;;;;;72.37;6.43;;;25.50;1.00;;;;;;4986841;28;20411;-83
2023/09/06 10:21:15;;;;;;;71.33;7.33;;;25.60;1.00;;;;;;4987059;28;20430;-83
2023/09/06 10:23:46;;;;;;;72.17;6.80;;;25.80;1.00;;;;;;4987775;28;20419;-82
2023/09/06 10:26:29;;;;;;;73.57;7.33;;;26.10;1.00;;;;;;5003584;28;20406;-83
2023/09/06 10:28:59;;;;;;;72.03;6.70;;;26.30;1.00;;;;;;5004543;28;20902;-83
2023/09/06 10:32:01;;;;;;;73.97;7.70;;;26.40;1.00;;;;;;4985545;28;20481;-84
2023/09/06 10:34:33;;;;;;;78.57;8.17;;;26.50;1.00;;;;;;4994795;28;20425;-84
2023/09/06 10:37:06;;;;;;;73.37;8.07;;;26.60;1.00;;;;;;5003038;28;20440;-84
2023/09/06 10:39:31;;;;;;;73.03;9.87;;;26.80;1.00;;;;;;4985232;28;20433;-84
2023/09/06 10:42:13;;;;;;;71.73;8.20;;;26.80;1.00;;;;;;5003238;28;20414;-83
2023/09/06 10:44:54;;;;;;;72.23;9.60;;;27.00;1.00;;;;;;4984521;28;20175;-83
2023/09/06 10:47:26;;;;;;;72.27;9.67;;;27.10;1.00;;;;;;5002155;28;20417;-84
2023/09/06 10:50:34;;;;;;;78.50;8.97;;;27.30;1.00;;;;;;5098314;23;20513;-83
2023/09/06 10:54:12;;;;;;;;;;;;;;;;;;;;;
2023/09/06 10:58:02;;;;;;;71.40;7.50;;;27.60;1.00;;;;;;5024372;28;20517;-83
2023/09/06 11:00:59;;;;;;;72.17;10.37;;;27.60;1.00;;;;;;5008740;28;20434;-83
2023/09/06 11:03:54;;;;;;;69.77;4.70;;;27.90;1.00;;;;;;4954944;28;20509;-83
2023/09/06 11:06:23;;;;;;;71.60;3.80;;;27.90;1.00;;;;;;4987744;28;20421;-83
2023/09/06 11:08:49;;;;;;;70.30;3.90;;;27.70;1.00;;;;;;5003200;28;20478;-83
2023/09/06 11:11:15;;;;;;;70.57;4.27;;;27.80;1.00;;;;;;5196124;23;20587;-83
2023/09/06 11:13:44;;;;;;;72.77;4.93;;;28.10;1.00;;;;;;4986384;28;20936;-82
2023/09/06 11:16:15;;;;;;;70.70;4.60;;;28.40;1.00;;;;;;4983898;28;20214;-82
2023/09/06 11:18:45;;;;;;;70.27;3.93;;;28.50;1.00;;;;;;5002497;28;20419;-82
2023/09/06 11:21:23;;;;;;;69.90;4.77;;;28.50;1.00;;;;;;4986984;28;20435;-82
2023/09/06 11:23:53;;;;;;;69.90;4.17;;;28.50;1.00;;;;;;4983197;28;20388;-82
2023/09/06 11:26:19;;;;;;;70.67;4.30;;;28.40;1.00;;;;;;4982313;28;20407;-82
2023/09/06 11:28:47;;;;;;;74.70;4.47;;;28.40;1.00;;;;;;4964934;28;20795;-82
2023/09/06 11:31:33;;;;;;;71.47;4.53;;;28.30;1.00;;;;;;4982390;28;20967;-82
2023/09/06 11:34:04;;;;;;;72.17;4.77;;;28.40;1.00;;;;;;4983239;28;20384;-83
2023/09/06 11:36:32;;;;;;;72.00;4.60;;;28.50;1.00;;;;;;4982457;28;20451;-82
2023/09/06 11:39:21;;;;;;;70.80;5.10;;;28.70;1.00;;;;;;4982340;28;20410;-82
2023/09/06 11:41:48;;;;;;;70.07;5.20;;;29.00;1.00;;;;;;4982530;28;20385;-83
2023/09/06 11:44:17;;;;;;;73.77;3.80;;;29.00;1.00;;;;;;4982651;28;20818;-83
2023/09/06 11:46:43;;;;;;;70.90;5.20;;;29.00;1.00;;;;;;4983566;28;20913;-83
2023/09/06 11:49:11;;;;;;;71.93;3.83;;;29.20;1.00;;;;;;4982815;28;20501;-83
2023/09/06 11:51:37;;;;;;;70.70;3.97;;;29.30;1.00;;;;;;4982264;28;20498;-83
2023/09/06 11:54:09;;;;;;;69.37;3.53;;;29.30;1.00;;;;;;4982581;28;20480;-83
2023/09/06 11:56:39;;;;;;;70.77;4.20;;;29.30;1.00;;;;;;4982607;28;20399;-83
2023/09/06 11:59:12;;;;;;;70.50;3.90;;;29.30;1.00;;;;;;4982321;28;20406;-83
2023/09/06 12:01:43;;;;;;;70.67;4.70;;;29.40;1.00;;;;;;4981317;28;20857;-82
2023/09/06 12:04:16;;;;;;;73.30;4.27;;;29.30;1.00;;;;;;4964063;28;20411;-83
2023/09/06 12:06:42;;;;;;;72.87;4.30;;;29.30;1.00;;;;;;4966465;28;20826;-83
2023/09/06 12:09:18;;;;;;;69.73;4.13;;;29.40;1.00;;;;;;4983927;28;20473;-83
2023/09/06 12:11:45;;;;;;;70.10;4.70;;;29.30;1.00;;;;;;4985599;28;20442;-82
2023/09/06 12:14:12;;;;;;;74.50;6.20;;;29.30;1.00;;;;;;4984046;28;20404;-83
2023/09/06 12:16:39;;;;;;;70.30;3.90;;;29.50;1.00;;;;;;4979169;28;20411;-82
2023/09/06 12:19:10;;;;;;;68.47;3.13;;;29.50;1.00;;;;;;4981721;28;20915;-83
2023/09/06 12:21:36;;;;;;;69.30;4.00;;;29.60;1.00;;;;;;4982032;28;20938;-82
2023/09/06 12:24:02;;;;;;;69.70;4.20;;;29.50;1.00;;;;;;4980868;28;20414;-82
2023/09/06 12:26:27;;;;;;;71.20;5.33;;;29.80;1.00;;;;;;4982110;28;20215;-82
2023/09/06 12:28:53;;;;;;;69.70;3.90;;;29.70;1.00;;;;;;4982195;28;20249;-82
2023/09/06 12:32:06;;;;;;;72.67;4.27;;;29.70;1.00;;;;;;5044553;23;20247;-83
2023/09/06 12:35:04;;;;;;;72.27;4.43;;;29.50;1.00;;;;;;4972410;28;20182;-83
2023/09/06 12:37:45;;;;;;;70.40;3.73;;;29.70;1.00;;;;;;4983603;28;20939;-83
2023/09/06 12:40:20;;;;;;;70.40;4.10;;;29.70;1.00;;;;;;4974395;28;20432;-82
2023/09/06 12:43:06;;;;;;;70.70;3.87;;;29.60;1.00;;;;;;4961505;28;20417;-82
2023/09/06 12:45:33;;;;;;;70.17;4.40;;;29.60;1.00;;;;;;4980791;28;20471;-81
2023/09/06 12:48:00;;;;;;;69.47;4.30;;;29.80;1.00;;;;;;4979631;28;20478;-81
2023/09/06 12:50:27;;;;;;;69.43;3.83;;;29.80;1.00;;;;;;4981419;28;20639;-80
2023/09/06 12:52:54;;;;;;;71.70;3.67;;;29.70;1.00;;;;;;4978503;28;20487;-81
2023/09/06 12:55:43;;;;;;;69.40;4.20;;;29.80;1.00;;;;;;4982078;28;20404;-82